sensor_id;sensor_type;location;lat;lon;timestamp;P1;durP1;ratioP1;P2;durP2;ratioP2
65393;SDS011;52002;49.760;6.512;2023-07-20T00:01:12;2.10;;;1.50;;
65393;SDS011;52002;49.760;6.512;2023-07-20T00:03:38;6.10;;;1.60;;
65393;SDS011;52002;49.760;6.512;2023-07-20T00:06:03;2.70;;;1.60;;
65393;SDS011;52002;49.760;6.512;2023-07-20T00:08:29;3.20;;;1.70;;
65393;SDS011;52002;49.760;6.512;2023-07-20T00:10:55;7.30;;;1.90;;
65393;SDS011;52002;49.760;6.512;2023-07-20T00:13:20;4.00;;;1.50;;
65393;SDS011;52002;49.760;6.512;2023-07-20T00:15:46;4.00;;;1.40;;
65393;SDS011;52002;49.760;6.512;2023-07-20T00:18:12;5.50;;;1.40;;
65393;SDS011;52002;49.760;6.512;2023-07-20T00:20:37;4.30;;;1.50;;
65393;SDS011;52002;49.760;6.512;2023-07-20T00:23:03;2.70;;;1.40;;
65393;SDS011;52002;49.760;6.512;2023-07-20T00:25:28;3.60;;;1.60;;
65393;SDS011;52002;49.760;6.512;2023-07-20T00:27:54;2.60;;;1.50;;
65393;SDS011;52002;49.760;6.512;2023-07-20T00:30:19;1.80;;;1.20;;
65393;SDS011;52002;49.760;6.512;2023-07-20T00:32:45;9.50;;;1.60;;
65393;SDS011;52002;49.760;6.512;2023-07-20T00:35:10;1.40;;;1.20;;
65393;SDS011;52002;49.760;6.512;2023-07-20T00:37:36;3.00;;;1.60;;
65393;SDS011;52002;49.760;6.512;2023-07-20T00:40:02;4.00;;;1.30;;
65393;SDS011;52002;49.760;6.512;2023-07-20T00:42:29;5.80;;;1.60;;
65393;SDS011;52002;49.760;6.512;2023-07-20T00:44:55;3.00;;;1.60;;
65393;SDS011;52002;49.760;6.512;2023-07-20T00:47:20;3.20;;;1.50;;
65393;SDS011;52002;49.760;6.512;2023-07-20T00:49:46;2.70;;;1.60;;
65393;SDS011;52002;49.760;6.512;2023-07-20T00:52:11;3.40;;;1.40;;
65393;SDS011;52002;49.760;6.512;2023-07-20T00:54:39;3.20;;;1.40;;
65393;SDS011;52002;49.760;6.512;2023-07-20T00:57:06;3.90;;;1.50;;
65393;SDS011;52002;49.760;6.512;2023-07-20T00:59:33;5.80;;;1.40;;
65393;SDS011;52002;49.760;6.512;2023-07-20T01:01:59;3.50;;;1.50;;
65393;SDS011;52002;49.760;6.512;2023-07-20T01:04:25;1.40;;;1.20;;
65393;SDS011;52002;49.760;6.512;2023-07-20T01:12:53;2.20;;;1.40;;
65393;SDS011;52002;49.760;6.512;2023-07-20T01:15:20;1.90;;;1.30;;
65393;SDS011;52002;49.760;6.512;2023-07-20T01:17:46;2.30;;;1.30;;
65393;SDS011;52002;49.760;6.512;2023-07-20T01:20:14;3.90;;;1.50;;
65393;SDS011;52002;49.760;6.512;2023-07-20T01:33:54;1.70;;;1.30;;
65393;SDS011;52002;49.760;6.512;2023-07-20T01:36:23;2.50;;;1.30;;
65393;SDS011;52002;49.760;6.512;2023-07-20T01:38:51;3.20;;;1.50;;
65393;SDS011;52002;49.760;6.512;2023-07-20T01:41:17;5.40;;;1.40;;
65393;SDS011;52002;49.760;6.512;2023-07-20T01:43:43;3.40;;;1.50;;
65393;SDS011;52002;49.760;6.512;2023-07-20T01:46:08;3.30;;;1.20;;
65393;SDS011;52002;49.760;6.512;2023-07-20T01:48:34;3.60;;;1.50;;
65393;SDS011;52002;49.760;6.512;2023-07-20T01:53:14;2.90;;;1.30;;
65393;SDS011;52002;49.760;6.512;2023-07-20T01:55:40;5.30;;;1.40;;
65393;SDS011;52002;49.760;6.512;2023-07-20T01:58:05;3.30;;;1.50;;
65393;SDS011;52002;49.760;6.512;2023-07-20T02:00:31;2.80;;;1.70;;
65393;SDS011;52002;49.760;6.512;2023-07-20T02:02:57;3.20;;;1.60;;
65393;SDS011;52002;49.760;6.512;2023-07-20T02:05:22;2.80;;;1.50;;
65393;SDS011;52002;49.760;6.512;2023-07-20T02:07:47;2.60;;;1.30;;
65393;SDS011;52002;49.760;6.512;2023-07-20T02:10:13;1.80;;;1.60;;
65393;SDS011;52002;49.760;6.512;2023-07-20T02:12:38;3.00;;;1.60;;
65393;SDS011;52002;49.760;6.512;2023-07-20T02:15:04;3.50;;;1.40;;
65393;SDS011;52002;49.760;6.512;2023-07-20T02:17:29;2.80;;;1.40;;
65393;SDS011;52002;49.760;6.512;2023-07-20T02:19:55;1.20;;;1.00;;
65393;SDS011;52002;49.760;6.512;2023-07-20T02:22:22;3.30;;;1.40;;
65393;SDS011;52002;49.760;6.512;2023-07-20T02:24:48;2.20;;;1.40;;
65393;SDS011;52002;49.760;6.512;2023-07-20T02:27:15;4.00;;;1.60;;
65393;SDS011;52002;49.760;6.512;2023-07-20T02:29:40;5.60;;;1.50;;
65393;SDS011;52002;49.760;6.512;2023-07-20T02:32:07;3.50;;;1.40;;
65393;SDS011;52002;49.760;6.512;2023-07-20T02:34:33;2.80;;;1.20;;
65393;SDS011;52002;49.760;6.512;2023-07-20T02:36:59;3.50;;;1.30;;
65393;SDS011;52002;49.760;6.512;2023-07-20T02:39:29;2.10;;;1.50;;
65393;SDS011;52002;49.760;6.512;2023-07-20T02:41:55;3.90;;;1.50;;
65393;SDS011;52002;49.760;6.512;2023-07-20T02:44:21;3.00;;;1.50;;
65393;SDS011;52002;49.760;6.512;2023-07-20T02:46:46;2.80;;;1.50;;
65393;SDS011;52002;49.760;6.512;2023-07-20T02:49:11;2.70;;;1.60;;
65393;SDS011;52002;49.760;6.512;2023-07-20T02:51:37;3.20;;;1.20;;
65393;SDS011;52002;49.760;6.512;2023-07-20T02:54:02;1.90;;;1.30;;
65393;SDS011;52002;49.760;6.512;2023-07-20T02:56:28;4.60;;;1.30;;
65393;SDS011;52002;49.760;6.512;2023-07-20T02:58:54;3.20;;;1.60;;
65393;SDS011;52002;49.760;6.512;2023-07-20T03:01:20;4.80;;;1.30;;
65393;SDS011;52002;49.760;6.512;2023-07-20T03:03:45;4.30;;;1.80;;
65393;SDS011;52002;49.760;6.512;2023-07-20T03:06:14;4.10;;;1.90;;
65393;SDS011;52002;49.760;6.512;2023-07-20T03:08:40;7.00;;;1.60;;
65393;SDS011;52002;49.760;6.512;2023-07-20T03:11:07;4.00;;;1.50;;
65393;SDS011;52002;49.760;6.512;2023-07-20T03:13:32;8.80;;;1.50;;
65393;SDS011;52002;49.760;6.512;2023-07-20T03:15:58;3.90;;;1.90;;
65393;SDS011;52002;49.760;6.512;2023-07-20T03:18:23;2.20;;;1.60;;
65393;SDS011;52002;49.760;6.512;2023-07-20T03:20:48;3.60;;;1.40;;
65393;SDS011;52002;49.760;6.512;2023-07-20T03:23:14;3.20;;;1.30;;
65393;SDS011;52002;49.760;6.512;2023-07-20T03:25:41;6.30;;;1.50;;
65393;SDS011;52002;49.760;6.512;2023-07-20T03:28:06;6.30;;;1.50;;
65393;SDS011;52002;49.760;6.512;2023-07-20T03:30:32;5.50;;;1.60;;
65393;SDS011;52002;49.760;6.512;2023-07-20T03:32:57;2.80;;;1.20;;
65393;SDS011;52002;49.760;6.512;2023-07-20T03:35:23;4.00;;;1.60;;
65393;SDS011;52002;49.760;6.512;2023-07-20T03:37:48;5.10;;;1.60;;
65393;SDS011;52002;49.760;6.512;2023-07-20T03:40:13;5.30;;;1.70;;
65393;SDS011;52002;49.760;6.512;2023-07-20T03:42:40;3.90;;;1.60;;
65393;SDS011;52002;49.760;6.512;2023-07-20T03:45:05;3.70;;;1.70;;
65393;SDS011;52002;49.760;6.512;2023-07-20T03:47:31;3.20;;;1.30;;
65393;SDS011;52002;49.760;6.512;2023-07-20T03:49:57;2.60;;;1.40;;
65393;SDS011;52002;49.760;6.512;2023-07-20T03:52:22;2.70;;;1.30;;
65393;SDS011;52002;49.760;6.512;2023-07-20T03:54:48;3.70;;;1.50;;
65393;SDS011;52002;49.760;6.512;2023-07-20T03:57:13;7.00;;;1.40;;
65393;SDS011;52002;49.760;6.512;2023-07-20T03:59:39;5.60;;;1.70;;
65393;SDS011;52002;49.760;6.512;2023-07-20T04:02:04;3.90;;;1.30;;
65393;SDS011;52002;49.760;6.512;2023-07-20T04:04:30;4.70;;;1.50;;
65393;SDS011;52002;49.760;6.512;2023-07-20T04:06:56;3.90;;;1.80;;
65393;SDS011;52002;49.760;6.512;2023-07-20T04:09:22;5.10;;;1.80;;
65393;SDS011;52002;49.760;6.512;2023-07-20T04:11:47;4.40;;;1.80;;
65393;SDS011;52002;49.760;6.512;2023-07-20T04:14:12;2.50;;;1.80;;
65393;SDS011;52002;49.760;6.512;2023-07-20T04:16:37;2.60;;;1.50;;
65393;SDS011;52002;49.760;6.512;2023-07-20T04:19:03;4.40;;;1.50;;
65393;SDS011;52002;49.760;6.512;2023-07-20T04:21:28;3.40;;;1.20;;
65393;SDS011;52002;49.760;6.512;2023-07-20T04:23:53;2.10;;;1.50;;
65393;SDS011;52002;49.760;6.512;2023-07-20T04:26:19;2.60;;;1.40;;
65393;SDS011;52002;49.760;6.512;2023-07-20T04:28:44;2.60;;;1.60;;
65393;SDS011;52002;49.760;6.512;2023-07-20T04:31:10;4.00;;;1.40;;
65393;SDS011;52002;49.760;6.512;2023-07-20T04:33:39;3.20;;;1.60;;
65393;SDS011;52002;49.760;6.512;2023-07-20T04:36:04;2.80;;;1.40;;
65393;SDS011;52002;49.760;6.512;2023-07-20T04:38:30;4.10;;;1.50;;
65393;SDS011;52002;49.760;6.512;2023-07-20T04:40:56;3.30;;;1.40;;
65393;SDS011;52002;49.760;6.512;2023-07-20T04:43:21;2.10;;;1.60;;
65393;SDS011;52002;49.760;6.512;2023-07-20T04:45:46;4.00;;;1.70;;
65393;SDS011;52002;49.760;6.512;2023-07-20T04:48:13;6.60;;;1.70;;
65393;SDS011;52002;49.760;6.512;2023-07-20T04:50:40;1.90;;;1.40;;
65393;SDS011;52002;49.760;6.512;2023-07-20T04:53:06;2.90;;;1.70;;
65393;SDS011;52002;49.760;6.512;2023-07-20T04:55:33;2.50;;;1.60;;
65393;SDS011;52002;49.760;6.512;2023-07-20T04:57:59;5.80;;;1.70;;
65393;SDS011;52002;49.760;6.512;2023-07-20T05:00:26;4.00;;;1.60;;
65393;SDS011;52002;49.760;6.512;2023-07-20T05:02:51;4.30;;;1.70;;
65393;SDS011;52002;49.760;6.512;2023-07-20T05:05:16;3.20;;;1.50;;
65393;SDS011;52002;49.760;6.512;2023-07-20T05:07:42;6.10;;;1.40;;
65393;SDS011;52002;49.760;6.512;2023-07-20T05:10:07;2.70;;;1.40;;
65393;SDS011;52002;49.760;6.512;2023-07-20T05:12:33;4.50;;;1.90;;
65393;SDS011;52002;49.760;6.512;2023-07-20T05:14:58;4.80;;;1.40;;
65393;SDS011;52002;49.760;6.512;2023-07-20T05:17:23;3.00;;;1.60;;
65393;SDS011;52002;49.760;6.512;2023-07-20T05:19:49;1.60;;;1.30;;
65393;SDS011;52002;49.760;6.512;2023-07-20T05:22:16;4.70;;;1.70;;
65393;SDS011;52002;49.760;6.512;2023-07-20T05:24:42;2.60;;;1.60;;
65393;SDS011;52002;49.760;6.512;2023-07-20T05:27:08;1.60;;;1.50;;
65393;SDS011;52002;49.760;6.512;2023-07-20T05:29:33;6.00;;;1.50;;
65393;SDS011;52002;49.760;6.512;2023-07-20T05:31:58;2.10;;;1.50;;
65393;SDS011;52002;49.760;6.512;2023-07-20T05:34:24;9.10;;;1.90;;
65393;SDS011;52002;49.760;6.512;2023-07-20T05:36:52;3.30;;;1.60;;
65393;SDS011;52002;49.760;6.512;2023-07-20T05:39:17;5.40;;;1.90;;
65393;SDS011;52002;49.760;6.512;2023-07-20T05:41:43;6.50;;;1.80;;
65393;SDS011;52002;49.760;6.512;2023-07-20T05:44:08;8.20;;;2.10;;
65393;SDS011;52002;49.760;6.512;2023-07-20T05:46:33;9.70;;;1.60;;
65393;SDS011;52002;49.760;6.512;2023-07-20T05:48:59;2.90;;;1.40;;
65393;SDS011;52002;49.760;6.512;2023-07-20T05:51:25;2.90;;;1.50;;
65393;SDS011;52002;49.760;6.512;2023-07-20T05:53:50;5.30;;;1.70;;
65393;SDS011;52002;49.760;6.512;2023-07-20T05:56:15;3.60;;;1.90;;
65393;SDS011;52002;49.760;6.512;2023-07-20T05:58:41;2.40;;;1.60;;
65393;SDS011;52002;49.760;6.512;2023-07-20T06:01:07;5.60;;;1.70;;
65393;SDS011;52002;49.760;6.512;2023-07-20T06:03:33;3.60;;;1.70;;
65393;SDS011;52002;49.760;6.512;2023-07-20T06:06:02;6.20;;;1.80;;
65393;SDS011;52002;49.760;6.512;2023-07-20T06:08:29;6.10;;;1.60;;
65393;SDS011;52002;49.760;6.512;2023-07-20T06:10:55;5.30;;;1.90;;
65393;SDS011;52002;49.760;6.512;2023-07-20T06:13:20;4.00;;;2.00;;
65393;SDS011;52002;49.760;6.512;2023-07-20T06:15:46;2.00;;;1.50;;
65393;SDS011;52002;49.760;6.512;2023-07-20T06:18:12;2.90;;;1.80;;
65393;SDS011;52002;49.760;6.512;2023-07-20T06:20:38;5.60;;;1.70;;
65393;SDS011;52002;49.760;6.512;2023-07-20T06:23:03;3.60;;;1.80;;
65393;SDS011;52002;49.760;6.512;2023-07-20T06:25:29;8.20;;;2.40;;
65393;SDS011;52002;49.760;6.512;2023-07-20T06:27:54;4.00;;;1.70;;
65393;SDS011;52002;49.760;6.512;2023-07-20T06:30:20;3.70;;;1.80;;
65393;SDS011;52002;49.760;6.512;2023-07-20T06:32:46;2.10;;;1.70;;
65393;SDS011;52002;49.760;6.512;2023-07-20T06:35:12;2.10;;;1.70;;
65393;SDS011;52002;49.760;6.512;2023-07-20T06:37:37;2.60;;;2.00;;
65393;SDS011;52002;49.760;6.512;2023-07-20T06:40:03;3.20;;;1.90;;
65393;SDS011;52002;49.760;6.512;2023-07-20T06:42:29;4.90;;;2.30;;
65393;SDS011;52002;49.760;6.512;2023-07-20T06:44:56;4.00;;;2.40;;
65393;SDS011;52002;49.760;6.512;2023-07-20T06:47:22;3.30;;;2.10;;
65393;SDS011;52002;49.760;6.512;2023-07-20T06:49:48;3.30;;;2.30;;
65393;SDS011;52002;49.760;6.512;2023-07-20T06:52:13;3.00;;;2.30;;
65393;SDS011;52002;49.760;6.512;2023-07-20T06:54:38;3.20;;;2.80;;
65393;SDS011;52002;49.760;6.512;2023-07-20T06:57:04;3.10;;;2.60;;
65393;SDS011;52002;49.760;6.512;2023-07-20T06:59:30;3.30;;;3.00;;
65393;SDS011;52002;49.760;6.512;2023-07-20T07:01:55;4.70;;;3.10;;
65393;SDS011;52002;49.760;6.512;2023-07-20T07:04:21;2.90;;;2.60;;
65393;SDS011;52002;49.760;6.512;2023-07-20T07:06:46;4.30;;;3.00;;
65393;SDS011;52002;49.760;6.512;2023-07-20T07:09:11;5.00;;;4.60;;
65393;SDS011;52002;49.760;6.512;2023-07-20T07:11:37;3.50;;;3.30;;
65393;SDS011;52002;49.760;6.512;2023-07-20T07:14:02;4.20;;;3.60;;
65393;SDS011;52002;49.760;6.512;2023-07-20T07:16:27;4.40;;;3.90;;
65393;SDS011;52002;49.760;6.512;2023-07-20T07:18:53;4.60;;;4.20;;
65393;SDS011;52002;49.760;6.512;2023-07-20T07:21:18;5.20;;;4.40;;
65393;SDS011;52002;49.760;6.512;2023-07-20T07:23:44;4.40;;;4.00;;
65393;SDS011;52002;49.760;6.512;2023-07-20T07:26:10;4.20;;;3.70;;
65393;SDS011;52002;49.760;6.512;2023-07-20T07:28:36;4.00;;;3.70;;
65393;SDS011;52002;49.760;6.512;2023-07-20T07:31:04;3.80;;;3.20;;
65393;SDS011;52002;49.760;6.512;2023-07-20T07:33:31;4.00;;;2.50;;
65393;SDS011;52002;49.760;6.512;2023-07-20T07:35:57;5.40;;;2.80;;
65393;SDS011;52002;49.760;6.512;2023-07-20T07:38:22;3.00;;;2.60;;
65393;SDS011;52002;49.760;6.512;2023-07-20T07:40:48;5.90;;;2.80;;
65393;SDS011;52002;49.760;6.512;2023-07-20T07:43:13;3.70;;;3.20;;
65393;SDS011;52002;49.760;6.512;2023-07-20T07:45:39;4.30;;;3.90;;
65393;SDS011;52002;49.760;6.512;2023-07-20T07:48:05;4.90;;;2.90;;
65393;SDS011;52002;49.760;6.512;2023-07-20T07:50:32;6.70;;;2.30;;
65393;SDS011;52002;49.760;6.512;2023-07-20T07:52:58;2.30;;;2.10;;
65393;SDS011;52002;49.760;6.512;2023-07-20T07:55:24;4.30;;;2.20;;
65393;SDS011;52002;49.760;6.512;2023-07-20T07:57:51;6.10;;;1.70;;
65393;SDS011;52002;49.760;6.512;2023-07-20T08:00:17;3.80;;;1.80;;
65393;SDS011;52002;49.760;6.512;2023-07-20T08:02:44;2.40;;;1.70;;
65393;SDS011;52002;49.760;6.512;2023-07-20T08:05:13;4.80;;;1.80;;
65393;SDS011;52002;49.760;6.512;2023-07-20T08:07:39;3.50;;;1.70;;
65393;SDS011;52002;49.760;6.512;2023-07-20T08:10:05;4.10;;;1.60;;
65393;SDS011;52002;49.760;6.512;2023-07-20T08:12:31;4.70;;;1.60;;
65393;SDS011;52002;49.760;6.512;2023-07-20T08:14:57;2.30;;;1.60;;
65393;SDS011;52002;49.760;6.512;2023-07-20T08:17:22;6.30;;;1.80;;
65393;SDS011;52002;49.760;6.512;2023-07-20T08:19:47;3.20;;;1.70;;
65393;SDS011;52002;49.760;6.512;2023-07-20T08:22:13;5.10;;;1.80;;
65393;SDS011;52002;49.760;6.512;2023-07-20T08:24:39;4.50;;;1.70;;
65393;SDS011;52002;49.760;6.512;2023-07-20T08:27:05;5.90;;;1.80;;
65393;SDS011;52002;49.760;6.512;2023-07-20T08:29:30;3.50;;;1.80;;
65393;SDS011;52002;49.760;6.512;2023-07-20T08:31:55;2.90;;;1.40;;
65393;SDS011;52002;49.760;6.512;2023-07-20T08:34:21;4.50;;;1.70;;
65393;SDS011;52002;49.760;6.512;2023-07-20T08:36:46;4.80;;;1.50;;
65393;SDS011;52002;49.760;6.512;2023-07-20T08:39:11;5.10;;;1.80;;
65393;SDS011;52002;49.760;6.512;2023-07-20T08:41:37;4.70;;;1.40;;
65393;SDS011;52002;49.760;6.512;2023-07-20T08:44:04;2.70;;;1.40;;
65393;SDS011;52002;49.760;6.512;2023-07-20T08:46:30;3.30;;;1.70;;
65393;SDS011;52002;49.760;6.512;2023-07-20T08:48:56;4.90;;;1.30;;
65393;SDS011;52002;49.760;6.512;2023-07-20T08:51:22;3.40;;;1.90;;
65393;SDS011;52002;49.760;6.512;2023-07-20T08:53:48;4.40;;;1.50;;
65393;SDS011;52002;49.760;6.512;2023-07-20T08:56:16;3.50;;;1.40;;
65393;SDS011;52002;49.760;6.512;2023-07-20T08:58:42;4.20;;;1.60;;
65393;SDS011;52002;49.760;6.512;2023-07-20T09:01:08;2.60;;;1.50;;
65393;SDS011;52002;49.760;6.512;2023-07-20T09:03:35;4.60;;;1.50;;
65393;SDS011;52002;49.760;6.512;2023-07-20T09:06:03;4.30;;;1.80;;
65393;SDS011;52002;49.760;6.512;2023-07-20T09:08:28;4.60;;;1.50;;
65393;SDS011;52002;49.760;6.512;2023-07-20T09:10:53;4.60;;;1.60;;
65393;SDS011;52002;49.760;6.512;2023-07-20T09:13:19;4.90;;;1.70;;
65393;SDS011;52002;49.760;6.512;2023-07-20T09:15:48;3.80;;;1.40;;
65393;SDS011;52002;49.760;6.512;2023-07-20T09:18:29;5.00;;;1.80;;
65393;SDS011;52002;49.760;6.512;2023-07-20T09:21:03;2.50;;;1.70;;
65393;SDS011;52002;49.760;6.512;2023-07-20T09:23:31;4.00;;;1.60;;
65393;SDS011;52002;49.760;6.512;2023-07-20T09:26:00;5.70;;;1.50;;
65393;SDS011;52002;49.760;6.512;2023-07-20T09:28:26;2.60;;;1.40;;
65393;SDS011;52002;49.760;6.512;2023-07-20T09:30:53;3.80;;;1.80;;
65393;SDS011;52002;49.760;6.512;2023-07-20T09:33:22;4.40;;;1.60;;
65393;SDS011;52002;49.760;6.512;2023-07-20T09:35:47;2.40;;;1.30;;
65393;SDS011;52002;49.760;6.512;2023-07-20T09:38:13;1.80;;;1.10;;
65393;SDS011;52002;49.760;6.512;2023-07-20T09:40:41;3.90;;;1.50;;
65393;SDS011;52002;49.760;6.512;2023-07-20T09:43:10;3.00;;;1.40;;
65393;SDS011;52002;49.760;6.512;2023-07-20T09:45:39;2.00;;;1.30;;
65393;SDS011;52002;49.760;6.512;2023-07-20T09:48:06;4.30;;;1.50;;
65393;SDS011;52002;49.760;6.512;2023-07-20T09:50:34;3.00;;;1.40;;
65393;SDS011;52002;49.760;6.512;2023-07-20T09:53:04;4.30;;;1.40;;
65393;SDS011;52002;49.760;6.512;2023-07-20T09:55:30;5.80;;;1.80;;
65393;SDS011;52002;49.760;6.512;2023-07-20T09:57:56;2.90;;;1.10;;
65393;SDS011;52002;49.760;6.512;2023-07-20T10:00:21;2.60;;;1.10;;
65393;SDS011;52002;49.760;6.512;2023-07-20T10:02:47;3.90;;;1.10;;
65393;SDS011;52002;49.760;6.512;2023-07-20T10:05:16;6.00;;;1.50;;
65393;SDS011;52002;49.760;6.512;2023-07-20T10:07:44;4.50;;;1.50;;
65393;SDS011;52002;49.760;6.512;2023-07-20T10:10:12;2.30;;;1.20;;
65393;SDS011;52002;49.760;6.512;2023-07-20T10:12:39;2.90;;;1.50;;
65393;SDS011;52002;49.760;6.512;2023-07-20T10:15:18;4.80;;;1.50;;
65393;SDS011;52002;49.760;6.512;2023-07-20T10:18:09;3.10;;;1.20;;
65393;SDS011;52002;49.760;6.512;2023-07-20T10:20:45;4.10;;;1.10;;
65393;SDS011;52002;49.760;6.512;2023-07-20T10:23:12;3.30;;;1.20;;
65393;SDS011;52002;49.760;6.512;2023-07-20T10:25:37;2.70;;;1.20;;
65393;SDS011;52002;49.760;6.512;2023-07-20T10:28:06;5.80;;;1.30;;
65393;SDS011;52002;49.760;6.512;2023-07-20T10:30:35;2.40;;;1.40;;
65393;SDS011;52002;49.760;6.512;2023-07-20T10:33:02;5.30;;;1.20;;
65393;SDS011;52002;49.760;6.512;2023-07-20T10:35:28;7.60;;;1.30;;
65393;SDS011;52002;49.760;6.512;2023-07-20T10:37:54;2.60;;;1.20;;
65393;SDS011;52002;49.760;6.512;2023-07-20T10:42:50;2.50;;;1.10;;
65393;SDS011;52002;49.760;6.512;2023-07-20T10:45:16;3.10;;;1.00;;
65393;SDS011;52002;49.760;6.512;2023-07-20T10:47:46;2.70;;;1.30;;
65393;SDS011;52002;49.760;6.512;2023-07-20T10:50:11;3.90;;;1.50;;
65393;SDS011;52002;49.760;6.512;2023-07-20T10:52:37;4.70;;;1.50;;
65393;SDS011;52002;49.760;6.512;2023-07-20T10:55:13;4.30;;;1.00;;
65393;SDS011;52002;49.760;6.512;2023-07-20T10:57:40;1.40;;;0.90;;
65393;SDS011;52002;49.760;6.512;2023-07-20T11:00:09;2.10;;;1.00;;
65393;SDS011;52002;49.760;6.512;2023-07-20T11:02:45;2.00;;;1.10;;
65393;SDS011;52002;49.760;6.512;2023-07-20T11:07:57;2.40;;;1.00;;
65393;SDS011;52002;49.760;6.512;2023-07-20T11:10:22;2.20;;;1.10;;
65393;SDS011;52002;49.760;6.512;2023-07-20T11:15:52;1.30;;;1.00;;
65393;SDS011;52002;49.760;6.512;2023-07-20T11:18:29;1.40;;;1.00;;
65393;SDS011;52002;49.760;6.512;2023-07-20T11:20:56;1.70;;;1.00;;
65393;SDS011;52002;49.760;6.512;2023-07-20T11:23:22;5.60;;;1.70;;
65393;SDS011;52002;49.760;6.512;2023-07-20T11:25:48;2.20;;;1.00;;
65393;SDS011;52002;49.760;6.512;2023-07-20T11:28:15;4.50;;;1.00;;
65393;SDS011;52002;49.760;6.512;2023-07-20T11:30:40;1.70;;;1.10;;
65393;SDS011;52002;49.760;6.512;2023-07-20T11:33:08;2.40;;;1.10;;
65393;SDS011;52002;49.760;6.512;2023-07-20T11:35:43;3.20;;;1.00;;
65393;SDS011;52002;49.760;6.512;2023-07-20T11:38:11;2.20;;;0.90;;
65393;SDS011;52002;49.760;6.512;2023-07-20T11:40:41;1.20;;;0.90;;
65393;SDS011;52002;49.760;6.512;2023-07-20T11:43:08;3.20;;;0.90;;
65393;SDS011;52002;49.760;6.512;2023-07-20T11:45:34;1.70;;;0.80;;
65393;SDS011;52002;49.760;6.512;2023-07-20T11:48:00;3.00;;;0.90;;
65393;SDS011;52002;49.760;6.512;2023-07-20T11:50:25;1.70;;;0.90;;
65393;SDS011;52002;49.760;6.512;2023-07-20T11:52:50;6.60;;;1.10;;
65393;SDS011;52002;49.760;6.512;2023-07-20T11:55:16;5.30;;;0.80;;
65393;SDS011;52002;49.760;6.512;2023-07-20T11:57:44;8.10;;;1.20;;
65393;SDS011;52002;49.760;6.512;2023-07-20T12:00:26;4.30;;;0.60;;
65393;SDS011;52002;49.760;6.512;2023-07-20T12:02:53;0.60;;;0.60;;
65393;SDS011;52002;49.760;6.512;2023-07-20T12:05:22;1.20;;;0.80;;
65393;SDS011;52002;49.760;6.512;2023-07-20T12:07:48;2.60;;;0.90;;
65393;SDS011;52002;49.760;6.512;2023-07-20T12:10:22;1.60;;;0.70;;
65393;SDS011;52002;49.760;6.512;2023-07-20T12:12:52;1.50;;;0.80;;
65393;SDS011;52002;49.760;6.512;2023-07-20T12:15:24;4.30;;;1.00;;
65393;SDS011;52002;49.760;6.512;2023-07-20T12:17:56;3.20;;;0.50;;
65393;SDS011;52002;49.760;6.512;2023-07-20T12:20:34;2.00;;;0.90;;
65393;SDS011;52002;49.760;6.512;2023-07-20T12:23:19;2.30;;;0.70;;
65393;SDS011;52002;49.760;6.512;2023-07-20T12:25:45;3.80;;;0.80;;
65393;SDS011;52002;49.760;6.512;2023-07-20T12:28:17;3.70;;;0.90;;
65393;SDS011;52002;49.760;6.512;2023-07-20T12:30:44;1.80;;;0.80;;
65393;SDS011;52002;49.760;6.512;2023-07-20T12:33:10;4.60;;;0.80;;
65393;SDS011;52002;49.760;6.512;2023-07-20T12:35:37;0.80;;;0.70;;
65393;SDS011;52002;49.760;6.512;2023-07-20T12:38:02;1.50;;;0.90;;
65393;SDS011;52002;49.760;6.512;2023-07-20T12:40:28;1.80;;;0.70;;
65393;SDS011;52002;49.760;6.512;2023-07-20T12:42:53;3.90;;;0.80;;
65393;SDS011;52002;49.760;6.512;2023-07-20T12:45:19;1.30;;;0.70;;
65393;SDS011;52002;49.760;6.512;2023-07-20T12:47:44;1.00;;;0.70;;
65393;SDS011;52002;49.760;6.512;2023-07-20T12:50:10;2.60;;;1.10;;
65393;SDS011;52002;49.760;6.512;2023-07-20T12:52:36;2.00;;;0.90;;
65393;SDS011;52002;49.760;6.512;2023-07-20T12:55:04;2.80;;;0.80;;
65393;SDS011;52002;49.760;6.512;2023-07-20T12:57:30;6.30;;;0.80;;
65393;SDS011;52002;49.760;6.512;2023-07-20T12:59:55;2.00;;;0.90;;
65393;SDS011;52002;49.760;6.512;2023-07-20T13:02:21;7.80;;;0.90;;
65393;SDS011;52002;49.760;6.512;2023-07-20T13:04:46;1.40;;;0.80;;
65393;SDS011;52002;49.760;6.512;2023-07-20T13:07:11;2.50;;;0.70;;
65393;SDS011;52002;49.760;6.512;2023-07-20T13:09:37;4.30;;;0.70;;
65393;SDS011;52002;49.760;6.512;2023-07-20T13:12:02;2.50;;;0.90;;
65393;SDS011;52002;49.760;6.512;2023-07-20T13:14:28;1.20;;;0.70;;
65393;SDS011;52002;49.760;6.512;2023-07-20T13:16:55;0.50;;;0.50;;
65393;SDS011;52002;49.760;6.512;2023-07-20T13:19:21;1.60;;;0.70;;
65393;SDS011;52002;49.760;6.512;2023-07-20T13:21:46;0.70;;;0.70;;
65393;SDS011;52002;49.760;6.512;2023-07-20T13:24:12;1.30;;;0.70;;
65393;SDS011;52002;49.760;6.512;2023-07-20T13:26:37;1.40;;;0.60;;
65393;SDS011;52002;49.760;6.512;2023-07-20T13:29:03;2.30;;;0.80;;
65393;SDS011;52002;49.760;6.512;2023-07-20T13:31:28;0.60;;;0.60;;
65393;SDS011;52002;49.760;6.512;2023-07-20T13:33:53;1.60;;;0.70;;
65393;SDS011;52002;49.760;6.512;2023-07-20T13:36:20;1.80;;;0.90;;
65393;SDS011;52002;49.760;6.512;2023-07-20T13:38:46;0.80;;;0.70;;
65393;SDS011;52002;49.760;6.512;2023-07-20T13:41:11;1.60;;;0.80;;
65393;SDS011;52002;49.760;6.512;2023-07-20T13:43:37;2.80;;;0.60;;
65393;SDS011;52002;49.760;6.512;2023-07-20T13:46:02;1.70;;;0.70;;
65393;SDS011;52002;49.760;6.512;2023-07-20T13:48:27;0.90;;;0.70;;
65393;SDS011;52002;49.760;6.512;2023-07-20T13:50:53;0.90;;;0.80;;
65393;SDS011;52002;49.760;6.512;2023-07-20T13:53:19;1.20;;;1.00;;
65393;SDS011;52002;49.760;6.512;2023-07-20T13:55:44;8.00;;;1.10;;
65393;SDS011;52002;49.760;6.512;2023-07-20T13:58:09;1.00;;;1.00;;
65393;SDS011;52002;49.760;6.512;2023-07-20T14:00:37;1.40;;;0.80;;
65393;SDS011;52002;49.760;6.512;2023-07-20T14:03:03;3.60;;;1.30;;
65393;SDS011;52002;49.760;6.512;2023-07-20T14:05:28;1.20;;;1.00;;
65393;SDS011;52002;49.760;6.512;2023-07-20T14:07:54;2.30;;;0.80;;
65393;SDS011;52002;49.760;6.512;2023-07-20T14:10:19;1.10;;;0.80;;
65393;SDS011;52002;49.760;6.512;2023-07-20T14:12:45;1.60;;;0.90;;
65393;SDS011;52002;49.760;6.512;2023-07-20T14:15:10;0.90;;;0.80;;
65393;SDS011;52002;49.760;6.512;2023-07-20T14:17:36;1.20;;;1.00;;
65393;SDS011;52002;49.760;6.512;2023-07-20T14:20:01;0.70;;;0.70;;
65393;SDS011;52002;49.760;6.512;2023-07-20T14:22:30;0.90;;;0.70;;
65393;SDS011;52002;49.760;6.512;2023-07-20T14:24:55;1.50;;;0.70;;
65393;SDS011;52002;49.760;6.512;2023-07-20T14:27:21;1.00;;;0.80;;
65393;SDS011;52002;49.760;6.512;2023-07-20T14:29:46;1.50;;;0.80;;
65393;SDS011;52002;49.760;6.512;2023-07-20T14:32:11;0.80;;;0.70;;
65393;SDS011;52002;49.760;6.512;2023-07-20T14:34:36;0.70;;;0.70;;
65393;SDS011;52002;49.760;6.512;2023-07-20T14:37:02;2.20;;;0.70;;
65393;SDS011;52002;49.760;6.512;2023-07-20T14:39:29;1.70;;;0.70;;
65393;SDS011;52002;49.760;6.512;2023-07-20T14:41:54;6.50;;;0.60;;
65393;SDS011;52002;49.760;6.512;2023-07-20T14:44:20;1.50;;;0.70;;
65393;SDS011;52002;49.760;6.512;2023-07-20T14:46:45;2.30;;;0.70;;
65393;SDS011;52002;49.760;6.512;2023-07-20T14:49:11;2.00;;;0.70;;
65393;SDS011;52002;49.760;6.512;2023-07-20T14:51:36;1.70;;;0.90;;
65393;SDS011;52002;49.760;6.512;2023-07-20T14:54:08;0.60;;;0.60;;
65393;SDS011;52002;49.760;6.512;2023-07-20T14:56:34;2.60;;;0.90;;
65393;SDS011;52002;49.760;6.512;2023-07-20T14:59:00;2.40;;;0.60;;
65393;SDS011;52002;49.760;6.512;2023-07-20T15:01:26;1.10;;;0.70;;
65393;SDS011;52002;49.760;6.512;2023-07-20T15:03:51;1.30;;;0.70;;
65393;SDS011;52002;49.760;6.512;2023-07-20T15:06:18;1.40;;;0.80;;
65393;SDS011;52002;49.760;6.512;2023-07-20T15:08:44;1.70;;;0.60;;
65393;SDS011;52002;49.760;6.512;2023-07-20T15:11:09;4.80;;;0.80;;